createdAt,value
2023-07-09T00:00:11.771Z,11.70
2023-07-09T00:05:03.583Z,12.95
2023-07-09T00:09:56.472Z,10.60
2023-07-09T00:14:48.239Z,11.07
2023-07-09T00:19:40.156Z,11.20
2023-07-09T00:24:32.124Z,10.70
2023-07-09T00:29:23.838Z,15.85
2023-07-09T00:34:18.645Z,12.95
2023-07-09T00:39:21.825Z,8.80
2023-07-09T00:44:30.578Z,9.52
2023-07-09T00:49:35.747Z,10.45
2023-07-09T00:54:38.012Z,11.07
2023-07-09T00:59:32.806Z,11.98
2023-07-09T01:04:25.492Z,10.20
2023-07-09T01:09:18.515Z,11.25
2023-07-09T01:14:17.454Z,11.23
2023-07-09T01:19:09.249Z,9.15
2023-07-09T01:24:16.161Z,9.38
2023-07-09T01:29:08.778Z,6.13
2023-07-09T01:34:00.453Z,7.95
2023-07-09T01:38:54.754Z,9.02
2023-07-09T01:43:47.898Z,7.07
2023-07-09T01:48:42.294Z,8.55
2023-07-09T01:53:34.908Z,8.07
2023-07-09T01:58:26.546Z,8.73
2023-07-09T02:03:18.924Z,8.23
2023-07-09T02:08:10.589Z,7.72
2023-07-09T02:13:02.578Z,8.23
2023-07-09T02:17:54.303Z,8.27
2023-07-09T02:22:46.455Z,8.05
2023-07-09T02:27:38.747Z,6.38
2023-07-09T02:32:30.592Z,6.15
2023-07-09T02:37:27.279Z,5.88
2023-07-09T02:42:21.022Z,4.75
2023-07-09T02:47:13.786Z,4.80
2023-07-09T02:52:06.909Z,3.58
2023-07-09T02:56:58.571Z,2.17
2023-07-09T03:01:50.476Z,1.42
2023-07-09T03:06:42.993Z,1.33
2023-07-09T03:11:36.191Z,1.60
2023-07-09T03:16:30.059Z,1.20
2023-07-09T03:21:25.828Z,1.02
2023-07-09T03:26:17.796Z,0.90
2023-07-09T03:31:09.843Z,0.95
2023-07-09T03:36:02.128Z,0.70
2023-07-09T03:40:55.206Z,0.70
2023-07-09T03:45:48.302Z,1.17
2023-07-09T03:50:40.094Z,0.85
2023-07-09T03:55:31.817Z,0.60
2023-07-09T04:00:23.663Z,0.70
2023-07-09T04:05:15.838Z,1.10
2023-07-09T04:10:07.871Z,0.82
2023-07-09T04:14:59.587Z,0.50
2023-07-09T04:19:52.065Z,0.80
2023-07-09T04:24:44.306Z,0.88
2023-07-09T04:29:36.688Z,0.80
2023-07-09T04:34:28.403Z,0.60
2023-07-09T04:39:20.245Z,0.55
2023-07-09T04:44:12.012Z,0.60
2023-07-09T04:49:05.035Z,0.60
2023-07-09T04:53:56.850Z,0.50
2023-07-09T04:58:50.402Z,0.82
2023-07-09T05:03:42.342Z,0.60
2023-07-09T05:08:34.152Z,0.60
2023-07-09T05:13:26.306Z,0.43
2023-07-09T05:18:19.635Z,0.60
2023-07-09T05:23:12.131Z,0.50
2023-07-09T05:28:05.116Z,1.02
2023-07-09T05:32:58.774Z,0.60
2023-07-09T05:37:50.460Z,0.63
2023-07-09T05:42:42.133Z,0.70
2023-07-09T05:47:33.874Z,0.88
2023-07-09T05:52:25.707Z,0.63
2023-07-09T05:57:17.729Z,0.68
2023-07-09T06:02:14.188Z,0.50
2023-07-09T06:07:06.112Z,0.60
2023-07-09T06:11:57.793Z,0.75
2023-07-09T06:16:49.495Z,0.60
2023-07-09T06:21:41.693Z,0.63
2023-07-09T06:26:33.348Z,0.73
2023-07-09T06:31:25.786Z,0.80
2023-07-09T06:36:18.742Z,0.80
2023-07-09T06:41:10.372Z,0.70
2023-07-09T06:46:03.179Z,0.60
2023-07-09T06:50:56.605Z,0.60
2023-07-09T06:55:50.183Z,0.80
2023-07-09T07:00:41.945Z,0.80
2023-07-09T07:05:34.462Z,0.50
2023-07-09T07:10:28.052Z,0.70
2023-07-09T07:15:20.362Z,0.70
2023-07-09T07:20:14.152Z,0.85
2023-07-09T07:25:07.795Z,0.70
2023-07-09T07:29:59.479Z,0.88
2023-07-09T07:34:51.291Z,0.70
2023-07-09T07:39:43.394Z,0.60
2023-07-09T07:44:35.236Z,0.63
2023-07-09T07:49:27.176Z,0.82
2023-07-09T07:54:19.490Z,1.50
2023-07-09T07:59:11.276Z,0.70
2023-07-09T08:04:04.007Z,0.80
2023-07-09T08:08:55.857Z,0.80
2023-07-09T08:13:47.548Z,1.50
2023-07-09T08:18:39.805Z,0.50
2023-07-09T08:23:32.169Z,0.50
2023-07-09T08:28:24.621Z,2.38
2023-07-09T08:33:16.287Z,0.52
2023-07-09T08:38:08.109Z,2.58
2023-07-09T08:43:09.656Z,0.50
2023-07-09T08:48:22.124Z,0.50
2023-07-09T08:53:24.581Z,0.60
2023-07-09T08:58:24.473Z,0.70
2023-07-09T09:03:36.860Z,1.20
2023-07-09T09:09:05.751Z,0.68
2023-07-09T09:14:02.506Z,0.90
2023-07-09T09:18:58.614Z,0.60
2023-07-09T09:23:57.466Z,0.55
2023-07-09T09:28:49.460Z,0.60
2023-07-09T09:33:46.201Z,0.90
2023-07-09T09:38:38.201Z,0.80
2023-07-09T09:43:34.190Z,0.90
2023-07-09T09:48:31.860Z,0.80
2023-07-09T09:53:25.253Z,0.80
2023-07-09T09:58:18.658Z,0.60
2023-07-09T10:03:11.815Z,0.70
2023-07-09T10:08:10.687Z,0.75
2023-07-09T10:13:17.301Z,0.88
2023-07-09T10:18:33.278Z,2.30
2023-07-09T10:23:47.949Z,1.10
2023-07-09T10:29:11.978Z,0.70
2023-07-09T10:34:22.136Z,0.50
2023-07-09T10:39:29.344Z,0.80
2023-07-09T10:44:30.584Z,0.52
2023-07-09T10:49:23.292Z,0.70
2023-07-09T10:54:50.511Z,0.68
2023-07-09T11:04:40.713Z,0.60
2023-07-09T11:09:35.758Z,0.50
2023-07-09T11:15:06.290Z,0.95
2023-07-09T11:20:02.517Z,0.70
2023-07-09T11:25:12.881Z,0.55
2023-07-09T11:30:19.347Z,0.60
2023-07-09T11:35:22.821Z,0.55
2023-07-09T11:40:15.504Z,0.60
2023-07-09T11:45:17.583Z,0.60
2023-07-09T11:50:26.406Z,0.60
2023-07-09T11:55:34.580Z,0.52
2023-07-09T12:00:34.847Z,0.55
2023-07-09T12:05:29.774Z,0.50
2023-07-09T12:10:25.045Z,0.60
2023-07-09T12:15:22.974Z,0.50
2023-07-09T12:20:15.133Z,0.47
2023-07-09T12:25:20.968Z,0.52
2023-07-09T12:30:13.623Z,0.57
2023-07-09T12:35:08.922Z,0.50
2023-07-09T12:40:02.008Z,0.50
2023-07-09T12:44:56.759Z,0.50
2023-07-09T12:49:52.996Z,0.68
2023-07-09T12:54:56.053Z,0.40
2023-07-09T12:59:49.192Z,0.60
2023-07-09T13:04:41.115Z,0.47
2023-07-09T13:09:33.169Z,0.50
2023-07-09T13:14:31.663Z,0.47
2023-07-09T13:19:23.333Z,0.30
2023-07-09T13:24:24.599Z,0.43
2023-07-09T13:29:18.495Z,0.68
2023-07-09T13:34:20.308Z,0.60
2023-07-09T13:39:14.146Z,0.43
2023-07-09T13:44:13.165Z,0.40
2023-07-09T13:49:09.958Z,0.40
2023-07-09T13:58:55.337Z,0.50
2023-07-09T14:03:47.212Z,0.40
2023-07-09T14:08:38.958Z,0.65
2023-07-09T14:13:33.141Z,0.50
2023-07-09T14:18:24.939Z,0.43
2023-07-09T14:23:18.551Z,0.30
2023-07-09T14:28:13.360Z,0.82
2023-07-09T14:33:06.411Z,0.55
2023-07-09T14:38:00.691Z,0.52
2023-07-09T14:42:52.569Z,0.40
2023-07-09T14:47:44.672Z,0.45
2023-07-09T14:52:36.770Z,0.52
2023-07-09T14:57:31.029Z,0.40
2023-07-09T15:02:22.713Z,0.38
2023-07-09T15:07:15.400Z,0.50
2023-07-09T15:12:23.199Z,0.70
2023-07-09T15:17:15.218Z,0.40
2023-07-09T15:22:18.464Z,0.30
2023-07-09T15:27:10.141Z,0.30
2023-07-09T15:32:02.040Z,0.30
2023-07-09T15:36:54.146Z,0.30
2023-07-09T15:41:46.998Z,0.93
2023-07-09T15:46:41.473Z,0.43
2023-07-09T15:51:33.277Z,0.20
2023-07-09T15:56:31.190Z,0.20
2023-07-09T16:01:25.237Z,0.30
2023-07-09T16:06:19.150Z,0.20
2023-07-09T16:11:19.130Z,0.20
2023-07-09T16:16:19.845Z,0.20
2023-07-09T16:21:23.688Z,0.10
2023-07-09T16:26:15.361Z,0.40
2023-07-09T16:31:07.796Z,0.30
2023-07-09T16:35:59.522Z,0.20
2023-07-09T16:40:51.514Z,0.20
2023-07-09T16:45:43.225Z,0.40
2023-07-09T16:50:34.864Z,0.20
2023-07-09T16:55:28.681Z,0.20
2023-07-09T17:00:27.592Z,0.38
2023-07-09T17:05:20.193Z,0.20
2023-07-09T17:10:13.925Z,0.30
2023-07-09T17:15:26.980Z,0.30
2023-07-09T17:20:19.505Z,0.30
2023-07-09T17:25:40.880Z,0.30
2023-07-09T17:30:32.558Z,0.20
2023-07-09T17:35:25.993Z,0.30
2023-07-09T17:40:43.144Z,0.30
2023-07-09T17:50:27.550Z,0.30
2023-07-09T17:55:20.018Z,0.20
2023-07-09T18:00:20.325Z,0.30
2023-07-09T18:05:23.404Z,0.30
2023-07-09T18:10:15.220Z,0.30
2023-07-09T18:15:15.105Z,0.22
2023-07-09T18:20:14.538Z,0.20
2023-07-09T18:25:06.507Z,0.30
2023-07-09T18:29:58.354Z,0.20
2023-07-09T18:35:02.777Z,0.20
2023-07-09T18:39:54.591Z,0.20
2023-07-09T18:44:47.149Z,0.20
2023-07-09T18:49:38.859Z,0.20
2023-07-09T18:54:30.519Z,0.20
2023-07-09T18:59:22.761Z,0.28
2023-07-09T19:04:18.675Z,0.20
2023-07-09T19:09:24.356Z,0.40
2023-07-09T19:14:17.530Z,0.32
2023-07-09T19:19:17.373Z,0.30
2023-07-09T19:24:24.162Z,0.20
2023-07-09T19:29:17.373Z,0.30
2023-07-09T19:34:27.222Z,0.30
2023-07-09T19:39:37.234Z,0.40
2023-07-09T19:44:28.883Z,0.20
2023-07-09T19:49:20.691Z,0.40
2023-07-09T19:54:15.174Z,0.32
2023-07-09T19:59:06.799Z,0.35
2023-07-09T20:03:58.436Z,0.40
2023-07-09T20:08:50.563Z,0.40
2023-07-09T20:13:42.608Z,0.40
2023-07-09T20:18:34.275Z,0.30
2023-07-09T20:23:27.077Z,0.25
2023-07-09T20:28:21.139Z,0.38
2023-07-09T20:33:13.912Z,0.30
2023-07-09T20:38:32.410Z,0.22
2023-07-09T20:43:30.094Z,0.30
2023-07-09T20:48:23.427Z,0.30
2023-07-09T20:53:17.345Z,0.30
2023-07-09T20:58:16.961Z,0.30
2023-07-09T21:03:14.434Z,0.30
2023-07-09T21:13:12.925Z,0.40
2023-07-09T21:18:07.240Z,0.25
2023-07-09T21:22:58.870Z,0.40
2023-07-09T21:27:51.599Z,0.32
2023-07-09T21:32:44.456Z,0.40
2023-07-09T21:37:36.149Z,0.43
2023-07-09T21:42:27.864Z,0.30
2023-07-09T21:47:19.930Z,0.40
2023-07-09T21:52:20.278Z,0.40
2023-07-09T21:57:11.922Z,1.05
2023-07-09T22:02:04.037Z,0.50
2023-07-09T22:06:57.613Z,0.38
2023-07-09T22:11:49.343Z,0.43
2023-07-09T22:16:43.173Z,0.50
2023-07-09T22:21:39.584Z,0.55
2023-07-09T22:26:33.911Z,0.60
2023-07-09T22:31:26.766Z,0.50
2023-07-09T22:36:18.501Z,0.50
2023-07-09T22:41:10.468Z,0.50
2023-07-09T22:46:03.741Z,0.50
2023-07-09T22:50:56.507Z,0.32
2023-07-09T22:55:50.024Z,0.40
2023-07-09T23:00:45.889Z,0.40
2023-07-09T23:05:37.544Z,0.50
2023-07-09T23:10:29.582Z,0.45
2023-07-09T23:15:25.979Z,0.45
2023-07-09T23:20:17.647Z,0.30
2023-07-09T23:25:12.480Z,0.40
2023-07-09T23:30:33.130Z,0.35
2023-07-09T23:35:26.825Z,0.70
2023-07-09T23:40:20.676Z,0.40
2023-07-09T23:45:19.780Z,0.50
2023-07-09T23:50:22.675Z,0.65
2023-07-09T23:55:15.449Z,0.35
